createdAt,value
2022-07-29T00:07:30.030Z,0.00
2022-07-29T00:17:36.610Z,0.00
2022-07-29T00:27:42.638Z,0.00
2022-07-29T00:37:48.595Z,0.00
2022-07-29T00:47:54.978Z,0.00
2022-07-29T00:58:01.472Z,0.00
2022-07-29T01:08:07.335Z,0.00
2022-07-29T01:18:14.970Z,0.00
2022-07-29T01:28:24.683Z,0.00
2022-07-29T01:38:32.915Z,0.00
2022-07-29T01:48:38.950Z,0.00
2022-07-29T01:58:45.144Z,0.00
2022-07-29T02:08:51.243Z,0.00
2022-07-29T02:18:57.293Z,0.00
2022-07-29T02:29:03.492Z,0.00
2022-07-29T02:39:10.619Z,0.00
2022-07-29T02:49:16.965Z,0.00
2022-07-29T02:59:23.732Z,0.00
2022-07-29T03:09:29.209Z,0.00
2022-07-29T03:19:36.823Z,8.00
2022-07-29T03:29:43.707Z,20.00
2022-07-29T03:39:55.650Z,44.00
2022-07-29T03:50:01.732Z,88.00
2022-07-29T04:00:08.228Z,140.00
2022-07-29T04:10:14.335Z,224.00
2022-07-29T04:20:22.251Z,288.00
2022-07-29T04:30:28.772Z,424.00
2022-07-29T04:40:35.029Z,600.00
2022-07-29T04:50:45.202Z,764.00
2022-07-29T05:00:53.641Z,904.00
2022-07-29T05:11:11.577Z,1088.00
2022-07-29T05:21:11.985Z,1028.00
2022-07-29T05:31:18.286Z,720.00
2022-07-29T05:41:24.796Z,1056.00
2022-07-29T05:51:31.021Z,1184.00
2022-07-29T06:01:37.010Z,1104.00
2022-07-29T06:11:45.485Z,1268.00
2022-07-29T06:21:51.601Z,1728.00
2022-07-29T06:31:57.743Z,1856.00
2022-07-29T06:42:03.979Z,2036.00
2022-07-29T06:52:10.075Z,2568.00
2022-07-29T07:02:18.058Z,4216.00
2022-07-29T07:12:24.244Z,3468.00
2022-07-29T07:22:33.473Z,2920.00
2022-07-29T07:32:42.012Z,4768.00
2022-07-29T07:42:48.774Z,4028.00
2022-07-29T07:52:55.143Z,3292.00
2022-07-29T08:03:01.513Z,3468.00
2022-07-29T08:13:07.965Z,5092.00
2022-07-29T08:23:14.148Z,5500.00
2022-07-29T08:33:20.821Z,5400.00
2022-07-29T08:43:27.272Z,5232.00
2022-07-29T08:53:33.697Z,5836.00
2022-07-29T09:03:39.704Z,6760.00
2022-07-29T09:13:46.349Z,9152.00
2022-07-29T09:23:52.789Z,8832.00
2022-07-29T09:33:59.219Z,7580.00
2022-07-29T09:44:06.914Z,6332.00
2022-07-29T09:54:13.089Z,6504.00
2022-07-29T10:04:19.794Z,8016.00
2022-07-29T10:14:26.097Z,8308.00
2022-07-29T10:24:32.652Z,48384.00
2022-07-29T10:34:39.431Z,53856.00
2022-07-29T10:44:48.086Z,30304.00
2022-07-29T10:54:55.842Z,15744.00
2022-07-29T11:05:04.281Z,16452.00
2022-07-29T11:15:11.067Z,20576.00
2022-07-29T11:25:42.799Z,19968.00
2022-07-29T11:35:38.075Z,12808.00
2022-07-29T11:45:46.653Z,2788.00
2022-07-29T11:55:52.166Z,3096.00
2022-07-29T12:05:59.908Z,2268.00
2022-07-29T12:16:05.686Z,3280.00
2022-07-29T12:26:25.465Z,2896.00
2022-07-29T12:36:24.188Z,2012.00
2022-07-29T12:46:31.995Z,2268.00
2022-07-29T12:56:45.632Z,2508.00
2022-07-29T13:06:51.232Z,2920.00
2022-07-29T13:16:57.448Z,2936.00
2022-07-29T13:27:05.674Z,2976.00
2022-07-29T13:37:11.786Z,3456.00
2022-07-29T13:47:19.560Z,3896.00
2022-07-29T13:57:25.682Z,6708.00
2022-07-29T14:07:32.253Z,9560.00
2022-07-29T14:17:38.001Z,6676.00
2022-07-29T14:27:45.429Z,7856.00
2022-07-29T14:37:51.448Z,11664.00
2022-07-29T14:49:31.415Z,10688.00
2022-07-29T14:59:36.667Z,9908.00
2022-07-29T15:09:49.526Z,7752.00
2022-07-29T15:19:55.311Z,6884.00
2022-07-29T15:30:00.953Z,5648.00
2022-07-29T15:40:06.628Z,3884.00
2022-07-29T15:50:12.866Z,3680.00
2022-07-29T16:00:19.285Z,2976.00
2022-07-29T16:10:25.646Z,2808.00
2022-07-29T16:20:31.943Z,2580.00
2022-07-29T16:30:38.283Z,1972.00
2022-07-29T16:40:44.688Z,1852.00
2022-07-29T16:50:50.966Z,1864.00
2022-07-29T17:00:57.439Z,1788.00
2022-07-29T17:11:03.765Z,1560.00
2022-07-29T17:21:09.895Z,1304.00
2022-07-29T17:31:16.393Z,1080.00
2022-07-29T17:41:22.774Z,832.00
2022-07-29T17:51:29.044Z,564.00
2022-07-29T18:01:35.424Z,360.00
2022-07-29T18:11:44.461Z,232.00
2022-07-29T18:21:55.305Z,144.00
2022-07-29T18:32:03.074Z,84.00
2022-07-29T18:42:09.044Z,48.00
2022-07-29T18:52:15.298Z,28.00
2022-07-29T19:02:21.784Z,16.00
2022-07-29T19:12:28.238Z,8.00
2022-07-29T19:22:34.493Z,0.00
2022-07-29T19:32:40.912Z,0.00
2022-07-29T19:42:47.262Z,0.00
2022-07-29T19:52:53.466Z,8.00
2022-07-29T20:03:00.471Z,0.00
2022-07-29T20:13:06.514Z,0.00
2022-07-29T20:23:14.476Z,0.00
2022-07-29T20:33:20.317Z,0.00
2022-07-29T20:43:27.739Z,0.00
2022-07-29T20:53:33.678Z,0.00
2022-07-29T21:03:41.983Z,0.00
2022-07-29T21:13:48.322Z,0.00
2022-07-29T21:23:54.672Z,0.00
2022-07-29T21:34:00.730Z,0.00
2022-07-29T21:44:08.503Z,0.00
2022-07-29T21:54:14.321Z,0.00
2022-07-29T22:04:22.643Z,0.00
2022-07-29T22:14:29.001Z,0.00
2022-07-29T22:24:35.062Z,0.00
2022-07-29T22:34:41.299Z,0.00
2022-07-29T22:44:48.718Z,0.00
2022-07-29T22:54:54.875Z,0.00
2022-07-29T23:05:01.076Z,0.00
2022-07-29T23:15:08.008Z,0.00
2022-07-29T23:25:14.394Z,0.00
2022-07-29T23:35:20.532Z,0.00
2022-07-29T23:45:32.592Z,0.00
2022-07-29T23:55:39.925Z,0.00
